Weather at Skiros Airport

Public forecast

Using degrees Celsius for public forecast. Weather courtesy of forecast.io.

Current aviation weather report (METAR) for Skiros Airport

Report is more than 2 hours old.

2024/07/18 19:50 (retrieved 5 hours ago)

LGSY 181950Z VRB03KT CAVOK 27/22 Q1009 BLU

Closest aviation forecast (TAF) to Skiros Airport

Forecast is more than 6 hours old.

Closest forecast is Graf Ignatievo Air Base, 199.8 nm (370.0 km) N.

2024/07/18 17:00 (retrieved 7 hours ago)

TAF LBPG 181600Z 1817/1905 09008G14KT 060V130 9999 SCT100 BECMG 1819/1821 VRB05KT BY LBSA